Date,TemperatureHighF,TemperatureAvgF,TemperatureLowF,DewpointHighF,DewpointAvgF,DewpointLowF,HumidityHigh,HumidityAvg,HumidityLow,PressureMaxIn,PressureMinIn,WindSpeedMaxMPH,WindSpeedAvgMPH,GustSpeedMaxMPH,PrecipitationSumIn
2013-2-1,18,14,10,10,5,-2,84,65,49,0.00,40.00,12,8,24,0.00
2013-2-2,19,11,1,3,1,-5,82,63,39,0.00,40.00,8,5,14,0.00
2013-2-3,17,9,-2,11,1,-7,84,72,59,0.00,40.00,11,4,18,0.00
2013-2-4,20,11,2,7,2,-3,83,69,44,0.00,40.00,8,3,15,0.00
2013-2-5,21,10,-4,17,4,-9,86,78,69,0.00,40.00,11,4,20,0.00
2013-2-6,28,17,-1,16,6,-6,80,62,36,0.00,40.00,8,4,15,0.00
2013-2-7,29,25,21,28,24,17,98,94,85,0.00,40.00,7,5,14,0.00
2013-2-8,28,20,11,28,17,8,98,87,75,0.00,40.00,10,7,21,0.00
2013-2-9,30,13,-9,18,6,-15,89,73,53,0.00,40.00,8,4,15,0.00
2013-2-10,35,25,13,32,21,11,97,83,57,0.00,40.00,9,7,17,0.00
2013-2-11,39,35,31,38,31,23,100,86,71,0.00,40.00,16,10,34,0.00
2013-2-12,31,27,24,23,19,15,78,69,62,0.00,40.00,17,10,29,0.00
2013-2-13,37,29,24,26,22,16,86,74,63,0.00,40.00,11,6,19,0.00
2013-2-14,38,31,26,34,29,24,100,93,72,0.00,40.00,11,4,22,0.00
2013-2-15,26,21,17,24,13,9,91,72,53,0.00,40.00,12,8,29,0.00
2013-2-16,24,15,2,11,6,-2,84,66,39,0.00,40.00,8,4,14,0.00
2013-2-17,20,10,-3,5,1,-8,83,67,47,0.00,40.00,7,4,15,0.00
2013-2-18,35,22,2,29,13,-2,92,67,49,0.00,40.00,13,8,25,0.00
2013-2-19,38,30,17,38,24,6,100,81,62,0.00,40.00,19,13,35,0.00
2013-2-20,21,14,10,10,3,-1,80,61,44,0.00,40.00,14,11,28,0.00
2013-2-21,26,14,6,15,5,-1,89,68,46,0.00,40.00,10,6,25,0.00
2013-2-22,28,25,18,27,24,15,99,93,88,0.00,40.00,10,6,20,0.00
2013-2-23,33,29,26,29,26,21,99,89,62,0.00,40.00,9,5,18,0.00
2013-2-24,36,28,14,25,21,12,96,75,55,0.00,40.00,9,4,17,0.00
2013-2-25,35,31,28,25,22,20,87,71,54,0.00,40.00,6,2,10,0.00
2013-2-26,35,31,25,30,24,20,88,77,64,0.00,40.00,13,8,28,0.00
2013-2-27,34,33,32,34,32,32,100,100,97,0.00,40.00,11,9,22,0.00
2013-2-28,35,30,25,32,28,20,100,91,83,0.00,40.00,11,8,22,0.00